createdAt,value
2022-12-06T09:58:32.679Z,27.73
2022-12-06T10:03:55.163Z,25.47
2022-12-06T10:09:20.778Z,24.77
2022-12-06T10:14:33.316Z,18.83
2022-12-06T10:19:40.336Z,59.70
2022-12-06T10:24:58.168Z,14.93
2022-12-06T10:29:58.822Z,17.07
2022-12-06T10:34:57.183Z,16.83
2022-12-06T10:39:56.855Z,15.97
2022-12-06T10:44:54.872Z,19.93
2022-12-06T10:49:56.724Z,14.80
2022-12-06T10:54:59.665Z,14.93
2022-12-06T11:00:03.098Z,13.43
2022-12-06T11:05:03.299Z,13.13
2022-12-06T11:09:58.686Z,12.73
2022-12-06T11:14:58.002Z,13.00
2022-12-06T11:19:53.541Z,15.57
2022-12-06T11:24:56.742Z,13.03
2022-12-06T11:29:53.427Z,15.47
2022-12-06T11:34:50.551Z,9.00
2022-12-06T11:39:44.747Z,8.43
2022-12-06T11:44:49.275Z,7.70
2022-12-06T11:49:46.362Z,7.03
2022-12-06T11:54:45.492Z,9.40
2022-12-06T11:59:40.585Z,6.07
2022-12-06T12:04:38.371Z,7.33
2022-12-06T12:09:34.888Z,6.93
2022-12-06T12:14:37.506Z,10.70
2022-12-06T12:19:47.272Z,5.33
2022-12-06T12:25:03.575Z,5.90
2022-12-06T12:30:33.730Z,6.90
2022-12-06T12:35:29.942Z,5.07
2022-12-06T12:40:24.903Z,5.20
2022-12-06T12:45:21.443Z,5.90
2022-12-06T12:50:20.964Z,6.57
2022-12-06T12:55:22.596Z,6.77
2022-12-06T13:00:17.243Z,5.10
2022-12-06T13:05:32.599Z,5.70
2022-12-06T13:10:32.807Z,7.20
2022-12-06T13:15:33.992Z,6.13
2022-12-06T13:20:30.974Z,5.93
2022-12-06T13:25:24.877Z,6.17
2022-12-06T13:30:22.048Z,5.97
2022-12-06T13:35:25.461Z,6.60
2022-12-06T13:40:54.424Z,8.17
2022-12-06T13:45:50.416Z,7.83
2022-12-06T13:50:56.348Z,8.80
2022-12-06T13:56:01.656Z,9.70
2022-12-06T14:00:58.127Z,10.10
2022-12-06T14:06:09.125Z,8.70
2022-12-06T14:11:08.438Z,8.20
2022-12-06T14:16:03.745Z,9.23
2022-12-06T14:20:59.438Z,12.23
2022-12-06T14:25:52.997Z,8.63
2022-12-06T14:30:46.667Z,8.27
2022-12-06T14:35:42.011Z,8.00
2022-12-06T14:40:54.065Z,8.20
2022-12-06T14:45:48.010Z,9.17
2022-12-06T14:50:49.932Z,9.23
2022-12-06T14:55:56.404Z,10.07
2022-12-06T15:00:54.559Z,12.60
2022-12-06T15:05:57.404Z,14.73
2022-12-06T15:10:58.951Z,14.90
2022-12-06T15:16:04.145Z,10.47
2022-12-06T15:20:59.404Z,17.23
2022-12-06T15:25:53.880Z,16.73
2022-12-06T15:30:47.933Z,19.17
2022-12-06T15:35:41.445Z,13.87
2022-12-06T15:40:37.976Z,15.43
2022-12-06T15:45:32.308Z,27.93
2022-12-06T15:50:25.865Z,28.43
2022-12-06T15:55:20.011Z,27.57
2022-12-06T16:00:16.666Z,80.10
2022-12-06T16:05:16.431Z,55.47
2022-12-06T16:10:10.534Z,69.30
2022-12-06T16:15:04.352Z,30.33
2022-12-06T16:20:18.141Z,27.93
2022-12-06T16:25:11.779Z,37.93
2022-12-06T16:30:06.141Z,30.73
2022-12-06T16:35:01.355Z,34.37
2022-12-06T16:39:55.198Z,35.53
2022-12-06T16:44:52.027Z,16.53
2022-12-06T16:49:47.436Z,14.43
2022-12-06T16:54:43.274Z,14.43
2022-12-06T16:59:38.461Z,17.10
2022-12-06T17:04:31.976Z,18.10
2022-12-06T17:09:25.456Z,22.43
2022-12-06T17:14:22.719Z,30.07
2022-12-06T17:19:19.543Z,32.90
2022-12-06T17:24:14.309Z,22.73
2022-12-06T17:29:09.186Z,20.23
2022-12-06T17:34:05.557Z,23.40
2022-12-06T17:39:01.417Z,27.40
2022-12-06T17:43:55.030Z,33.07
